createdAt,value
2023-05-07T00:04:14.424Z,100337.31
2023-05-07T00:09:17.561Z,100343.72
2023-05-07T00:14:19.217Z,100347.19
2023-05-07T00:19:20.964Z,100339.63
2023-05-07T00:24:22.734Z,100335.13
2023-05-07T00:29:24.390Z,100344.19
2023-05-07T00:34:26.125Z,100340.28
2023-05-07T00:39:27.760Z,100348.16
2023-05-07T00:44:30.634Z,100348.47
2023-05-07T00:49:46.340Z,100336.44
2023-05-07T00:54:49.110Z,100336.09
2023-05-07T00:59:52.602Z,100342.16
2023-05-07T01:04:54.256Z,100335.94
2023-05-07T01:09:56.905Z,100335.34
2023-05-07T01:14:59.386Z,100347.44
2023-05-07T01:20:01.280Z,100342.47
2023-05-07T01:25:04.703Z,100348.69
2023-05-07T01:30:08.934Z,100347.56
2023-05-07T01:35:13.295Z,100346.16
2023-05-07T01:40:15.522Z,100346.31
2023-05-07T01:45:17.486Z,100352.16
2023-05-07T01:50:20.445Z,100356.94
2023-05-07T01:55:22.165Z,100353.41
2023-05-07T02:00:24.308Z,100349.22
2023-05-07T02:05:26.118Z,100345.16
2023-05-07T02:10:34.584Z,100348.22
2023-05-07T02:15:36.302Z,100351.63
2023-05-07T02:20:39.296Z,100363.38
2023-05-07T02:25:41.321Z,100351.91
2023-05-07T02:30:43.097Z,100366.13
2023-05-07T02:35:45.210Z,100367.44
2023-05-07T02:40:49.375Z,100365.50
2023-05-07T02:46:10.484Z,100360.56
2023-05-07T02:51:21.611Z,100361.53
2023-05-07T02:56:27.854Z,100362.53
2023-05-07T03:01:29.815Z,100364.53
2023-05-07T03:06:37.302Z,100361.28
2023-05-07T03:11:40.199Z,100355.00
2023-05-07T03:16:41.813Z,100362.91
2023-05-07T03:21:43.524Z,100370.06
2023-05-07T03:26:45.315Z,100362.19
2023-05-07T03:31:47.730Z,100371.06
2023-05-07T03:36:50.066Z,100370.41
2023-05-07T03:41:52.054Z,100374.88
2023-05-07T03:46:53.838Z,100376.69
2023-05-07T03:51:56.451Z,100376.19
2023-05-07T03:56:59.025Z,100383.31
2023-05-07T04:02:02.963Z,100390.53
2023-05-07T04:07:08.417Z,100382.97
2023-05-07T04:12:16.255Z,100388.00
2023-05-07T04:17:18.014Z,100386.09
2023-05-07T04:22:19.721Z,100389.63
2023-05-07T04:27:22.339Z,100390.66
2023-05-07T04:32:25.962Z,100400.88
2023-05-07T04:37:28.554Z,100411.53
2023-05-07T04:42:30.662Z,100421.72
2023-05-07T04:47:32.416Z,100419.28
2023-05-07T04:52:35.803Z,100431.94
2023-05-07T04:57:38.758Z,100430.84
2023-05-07T05:02:40.591Z,100445.84
2023-05-07T05:07:42.687Z,100440.66
2023-05-07T05:12:45.350Z,100435.81
2023-05-07T05:17:47.449Z,100440.03
2023-05-07T05:22:50.367Z,100438.31
2023-05-07T05:27:52.093Z,100437.59
2023-05-07T05:32:53.969Z,100452.28
2023-05-07T05:37:55.774Z,100455.00
2023-05-07T05:42:58.524Z,100457.38
2023-05-07T05:48:01.341Z,100469.50
2023-05-07T05:53:04.566Z,100467.75
2023-05-07T05:58:06.437Z,100469.75
2023-05-07T06:03:12.013Z,100475.63
2023-05-07T06:08:14.423Z,100484.41
2023-05-07T06:13:16.317Z,100497.50
2023-05-07T06:18:18.021Z,100498.19
2023-05-07T06:23:19.719Z,100504.53
2023-05-07T06:28:21.382Z,100504.72
2023-05-07T06:33:23.175Z,100501.09
2023-05-07T06:38:24.966Z,100496.34
2023-05-07T06:43:26.792Z,100506.94
2023-05-07T06:49:03.874Z,100522.53
2023-05-07T06:54:17.410Z,100514.75
2023-05-07T06:59:23.464Z,100516.59
2023-05-07T07:04:26.362Z,100520.44
2023-05-07T07:09:35.812Z,100518.22
2023-05-07T07:14:39.338Z,100519.13
2023-05-07T07:19:43.128Z,100522.41
2023-05-07T07:24:48.671Z,100539.28
2023-05-07T07:29:52.692Z,100526.19
2023-05-07T07:34:54.617Z,100533.38
2023-05-07T07:39:56.650Z,100535.56
2023-05-07T07:44:59.471Z,100530.41
2023-05-07T07:50:04.503Z,100543.53
2023-05-07T07:55:06.986Z,100548.78
2023-05-07T08:00:10.522Z,100549.53
2023-05-07T08:05:18.315Z,100552.88
2023-05-07T08:10:23.835Z,100556.22
2023-05-07T08:15:33.148Z,100559.91
2023-05-07T08:20:43.443Z,100568.41
2023-05-07T08:25:50.534Z,100570.22
2023-05-07T08:30:53.196Z,100569.91
2023-05-07T08:35:55.517Z,100568.75
2023-05-07T08:40:57.500Z,100562.06
2023-05-07T08:46:03.371Z,100571.91
2023-05-07T08:51:10.072Z,100575.94
2023-05-07T08:56:13.120Z,100577.72
2023-05-07T09:01:17.705Z,100583.50
2023-05-07T09:06:22.963Z,100579.75
2023-05-07T09:11:25.803Z,100585.19
2023-05-07T09:16:31.399Z,100595.72
2023-05-07T09:21:34.788Z,100596.47
2023-05-07T09:26:40.480Z,100597.53
2023-05-07T09:31:43.767Z,100594.28
2023-05-07T09:36:49.503Z,100592.47
2023-05-07T09:41:53.669Z,100591.66
2023-05-07T09:47:01.774Z,100586.63
2023-05-07T09:52:11.574Z,100597.38
2023-05-07T09:57:21.564Z,100599.66
2023-05-07T10:02:30.954Z,100593.50
2023-05-07T10:07:32.815Z,100594.97
2023-05-07T10:12:41.866Z,100603.88
2023-05-07T10:18:03.227Z,100604.66
2023-05-07T10:23:06.997Z,100613.63
2023-05-07T10:28:17.937Z,100604.19
2023-05-07T10:33:26.755Z,100603.06
2023-05-07T10:38:29.059Z,100599.94
2023-05-07T10:43:42.860Z,100604.63
2023-05-07T10:49:04.339Z,100596.13
2023-05-07T10:54:24.825Z,100595.69
2023-05-07T10:59:44.383Z,100593.69
2023-05-07T11:05:27.667Z,100593.97
2023-05-07T11:10:59.283Z,100589.97
2023-05-07T11:16:24.152Z,100593.38
2023-05-07T11:21:32.962Z,100591.47
2023-05-07T11:26:50.415Z,100587.97
2023-05-07T11:31:55.807Z,100583.16
2023-05-07T11:37:00.950Z,100588.22
2023-05-07T11:42:38.384Z,100587.94
2023-05-07T11:47:43.082Z,100581.34
2023-05-07T11:52:53.568Z,100590.19
2023-05-07T11:57:55.277Z,100587.06
2023-05-07T12:02:57.072Z,100590.81
2023-05-07T12:07:59.060Z,100595.25
2023-05-07T12:13:00.748Z,100582.66
2023-05-07T12:18:02.562Z,100588.81
2023-05-07T12:23:04.893Z,100589.53
2023-05-07T12:28:08.567Z,100605.75
2023-05-07T12:33:10.529Z,100598.13
2023-05-07T12:38:14.377Z,100605.25
2023-05-07T12:43:20.076Z,100600.72
2023-05-07T12:48:22.559Z,100592.63
2023-05-07T12:53:27.804Z,100600.06
2023-05-07T12:58:31.553Z,100600.06
2023-05-07T13:03:35.948Z,100597.97
2023-05-07T13:08:41.337Z,100592.19
2023-05-07T13:13:43.214Z,100591.84
2023-05-07T13:18:46.878Z,100583.56
2023-05-07T13:23:48.646Z,100586.19
2023-05-07T13:28:50.289Z,100581.75
2023-05-07T13:33:52.022Z,100576.97
2023-05-07T13:38:53.767Z,100576.38
2023-05-07T13:43:55.473Z,100569.47
2023-05-07T13:48:57.261Z,100571.03
2023-05-07T13:53:59.570Z,100576.69
2023-05-07T13:59:01.349Z,100573.63
2023-05-07T14:04:03.091Z,100581.22
2023-05-07T14:09:05.079Z,100571.28
2023-05-07T14:14:06.771Z,100569.53
2023-05-07T14:19:08.434Z,100571.06
2023-05-07T14:24:10.654Z,100566.25
2023-05-07T14:29:12.501Z,100568.31
2023-05-07T14:34:14.199Z,100569.94
2023-05-07T14:39:16.057Z,100567.31
2023-05-07T14:44:17.685Z,100560.09
2023-05-07T14:49:19.388Z,100553.94
2023-05-07T14:54:21.172Z,100560.56
2023-05-07T14:59:22.903Z,100564.41
2023-05-07T15:04:25.387Z,100576.22
2023-05-07T15:09:27.409Z,100576.78
2023-05-07T15:14:29.049Z,100582.56
2023-05-07T15:19:31.036Z,100573.78
2023-05-07T15:24:32.913Z,100573.22
2023-05-07T15:29:34.532Z,100581.38
2023-05-07T15:34:37.546Z,100584.00
2023-05-07T15:39:39.205Z,100597.72
2023-05-07T15:44:41.508Z,100600.50
2023-05-07T15:49:43.371Z,100594.84
2023-05-07T15:54:45.074Z,100598.03
2023-05-07T15:59:47.632Z,100606.00
2023-05-07T16:04:49.387Z,100611.63
2023-05-07T16:09:51.084Z,100606.00
2023-05-07T16:14:52.728Z,100601.41
2023-05-07T16:19:54.399Z,100604.25
2023-05-07T16:24:56.207Z,100604.59
2023-05-07T16:29:57.863Z,100599.25
2023-05-07T16:34:59.554Z,100622.59
2023-05-07T16:40:02.026Z,100614.53
2023-05-07T16:45:07.291Z,100611.25
2023-05-07T16:50:09.595Z,100620.19
2023-05-07T16:55:15.792Z,100616.03
2023-05-07T17:00:19.974Z,100614.41
2023-05-07T17:05:21.996Z,100628.41
2023-05-07T17:10:25.857Z,100629.38
2023-05-07T17:15:27.439Z,100632.81
2023-05-07T17:20:29.137Z,100643.44
2023-05-07T17:25:32.596Z,100643.38
2023-05-07T17:30:34.167Z,100647.94
2023-05-07T17:35:38.963Z,100652.91
2023-05-07T17:40:40.747Z,100647.81
2023-05-07T17:45:45.448Z,100657.72
2023-05-07T17:50:47.381Z,100655.84
2023-05-07T17:55:50.477Z,100652.56
2023-05-07T18:00:54.107Z,100662.66
2023-05-07T18:05:55.978Z,100659.19
2023-05-07T18:10:58.427Z,100664.53
2023-05-07T18:16:00.274Z,100686.56
2023-05-07T18:21:04.803Z,100683.13
2023-05-07T18:26:08.346Z,100682.50
2023-05-07T18:31:10.813Z,100684.53
2023-05-07T18:36:12.546Z,100690.72
2023-05-07T18:41:14.659Z,100696.03
2023-05-07T18:46:16.421Z,100704.72
2023-05-07T18:51:18.507Z,100708.53
2023-05-07T18:56:21.652Z,100716.31
2023-05-07T19:01:23.426Z,100719.16
2023-05-07T19:06:25.821Z,100715.63
2023-05-07T19:11:27.674Z,100705.25
2023-05-07T19:16:29.544Z,100715.09
2023-05-07T19:27:09.141Z,100722.25
2023-05-07T19:32:11.176Z,100725.22
2023-05-07T19:37:12.946Z,100727.66
2023-05-07T19:42:14.673Z,100729.44
2023-05-07T19:47:16.530Z,100736.63
2023-05-07T19:52:18.301Z,100745.47
2023-05-07T19:57:20.025Z,100745.47
2023-05-07T20:02:21.713Z,100756.03
2023-05-07T20:07:23.486Z,100762.97
2023-05-07T20:12:25.200Z,100768.31
2023-05-07T20:17:26.919Z,100774.50
2023-05-07T20:22:31.941Z,100776.44
2023-05-07T20:27:35.161Z,100772.00
2023-05-07T20:32:36.992Z,100784.47
2023-05-07T20:37:39.328Z,100786.06
2023-05-07T20:42:42.567Z,100790.34
2023-05-07T20:47:44.414Z,100799.13
2023-05-07T20:52:46.173Z,100798.13
2023-05-07T20:57:47.904Z,100795.44
2023-05-07T21:02:49.834Z,100795.47
2023-05-07T21:07:51.557Z,100797.28
2023-05-07T21:12:53.305Z,100797.31
2023-05-07T21:17:54.991Z,100796.47
2023-05-07T21:22:56.787Z,100797.44
2023-05-07T21:27:58.544Z,100797.69
2023-05-07T21:33:00.407Z,100810.84
2023-05-07T21:38:02.671Z,100811.78
2023-05-07T21:43:04.750Z,100812.59
2023-05-07T21:48:07.393Z,100812.09
2023-05-07T21:53:09.116Z,100812.97
2023-05-07T21:58:10.832Z,100829.50
2023-05-07T22:03:12.548Z,100825.19
2023-05-07T22:08:14.304Z,100831.34
2023-05-07T22:13:16.820Z,100834.94
2023-05-07T22:18:18.520Z,100821.00
2023-05-07T22:23:20.260Z,100821.91
2023-05-07T22:28:22.179Z,100823.75
2023-05-07T22:33:23.816Z,100815.13
2023-05-07T22:38:25.653Z,100818.69
2023-05-07T22:43:27.404Z,100822.25
2023-05-07T22:48:29.497Z,100816.13
2023-05-07T22:53:31.140Z,100820.41
2023-05-07T22:58:33.191Z,100814.41
2023-05-07T23:03:34.828Z,100807.44
2023-05-07T23:08:36.565Z,100819.56
2023-05-07T23:13:38.201Z,100819.50
2023-05-07T23:18:40.320Z,100814.19
2023-05-07T23:23:41.968Z,100820.16
2023-05-07T23:28:43.636Z,100824.53
2023-05-07T23:33:45.244Z,100816.88
2023-05-07T23:38:46.938Z,100817.81
2023-05-07T23:43:49.177Z,100818.75
2023-05-07T23:48:50.873Z,100823.09
2023-05-07T23:53:52.502Z,100809.22
2023-05-07T23:58:54.124Z,100812.78
